CheckWX is a tool to help pilots better visualize weather data.  It is not intended as a substitute for an official pre-flight weather briefing.

02:37:03 UTC

CYWE METAR
Wekweeti
Wekweeti, Canada
Current

37 mins ago

CYWE 190200Z AUTO 03004KT 9SM OVC021 04/01 A2977 RMK SLP105
Observed
Sep-19 @ 02:00 UTC
Wind
  • 030° at 4 KTS
Visibility
9 SM
Flight Rules
MVFR
Cloud Levels
  • Overcast at 2,100' AGL
Temperature
C / 39°F
Dewpoint
C / 34°F
Humidity
81%
Altimeter
29.77" Hg
Pressure
1008.12 hPa
Previous

1 hour ago

CYWE 190131Z AUTO 03003KT 9SM BKN023 04/01 A2977 RMK SLP106
Observed
Sep-19 @ 01:31 UTC
Wind
  • 030° at 3 KTS
Visibility
9 SM
Flight Rules
MVFR
Cloud Levels
  • Broken at 2,300' AGL
Temperature
C / 39°F
Dewpoint
C / 34°F
Humidity
81%
Altimeter
29.77" Hg
Pressure
1008.12 hPa
Previous

1 hour ago

CYWE 190114Z AUTO VRB02KT 9SM SCT021 05/01 A2978 RMK SLP107
Observed
Sep-19 @ 01:14 UTC
Wind
  • Variable at 2 KTS
Visibility
9 SM
Flight Rules
VFR
Cloud Levels
  • Scattered at 2,100' AGL
Temperature
C / 41°F
Dewpoint
C / 34°F
Humidity
76%
Altimeter
29.78" Hg
Pressure
1008.42 hPa